Time;durP1;ratioP1;P1;durP2;ratioP2;P2;SDS_P1;SDS_P2;PMS_P1;PMS_P2;Temp;Humidity;BMP_temperature;BMP_pressure;BME280_temperature;BME280_humidity;BME280_pressure;Samples;Min_cycle;Max_cycle;Signal;HPM_P1;HPM_P2
2022/04/02 00:01:00;;;;;;;7.70;6.07;;;1.80;99.90;;;;;;2609928;54;20265;-77
2022/04/02 00:03:28;;;;;;;7.30;6.30;;;1.70;99.90;;;;;;2611190;54;20402;-76
2022/04/02 00:05:55;;;;;;;7.40;6.20;;;1.70;99.90;;;;;;2608285;54;20411;-76
2022/04/02 00:08:21;;;;;;;8.87;6.50;;;1.70;99.90;;;;;;2610839;54;20417;-75
2022/04/02 00:10:47;;;;;;;14.40;7.43;;;1.70;99.90;;;;;;2609241;54;20450;-76
2022/04/02 00:13:15;;;;;;;12.70;6.50;;;1.80;99.90;;;;;;2610246;39;20873;-76
2022/04/02 00:15:42;;;;;;;8.37;6.37;;;1.80;99.90;;;;;;2609425;54;20411;-76
2022/04/02 00:18:08;;;;;;;8.00;6.70;;;1.80;99.90;;;;;;2610617;39;20775;-75
2022/04/02 00:20:33;;;;;;;7.80;4.97;;;1.70;99.90;;;;;;2609706;54;20459;-75
2022/04/02 00:25:45;;;;;;;5.20;4.63;;;1.60;99.90;;;;;;2611215;54;20765;-76
2022/04/02 00:28:11;;;;;;;6.50;5.40;;;1.60;99.90;;;;;;2611493;47;20527;-75
2022/04/02 00:30:38;;;;;;;6.43;4.70;;;1.70;99.90;;;;;;2609308;39;22201;-75
2022/04/02 00:33:05;;;;;;;5.90;4.60;;;1.60;99.90;;;;;;2608803;39;21609;-76
2022/04/02 00:35:31;;;;;;;6.90;4.90;;;1.60;99.90;;;;;;2608990;50;20954;-76
2022/04/02 00:37:57;;;;;;;6.73;4.80;;;1.70;99.90;;;;;;2608389;46;21086;-75
2022/04/02 00:40:23;;;;;;;9.30;4.90;;;1.70;99.90;;;;;;2608797;54;20506;-76
2022/04/02 00:42:49;;;;;;;4.87;4.37;;;1.60;99.90;;;;;;2610389;46;20158;-77
2022/04/02 00:45:15;;;;;;;5.40;4.57;;;1.60;99.90;;;;;;2609972;47;20269;-76
2022/04/02 00:47:42;;;;;;;11.70;5.47;;;1.60;99.90;;;;;;2610224;39;20863;-76
2022/04/02 00:50:09;;;;;;;5.23;4.13;;;1.70;99.90;;;;;;2608353;39;20279;-76
2022/04/02 00:52:34;;;;;;;7.20;4.67;;;1.70;99.90;;;;;;2609676;51;20427;-75
2022/04/02 00:55:00;;;;;;;3.23;3.00;;;1.70;99.90;;;;;;2611486;54;20417;-75
2022/04/02 00:57:29;;;;;;;5.87;4.30;;;1.70;99.90;;;;;;2611371;39;20729;-75
2022/04/02 00:59:55;;;;;;;6.27;3.30;;;1.70;99.90;;;;;;2607882;54;20375;-77
2022/04/02 01:02:21;;;;;;;8.23;5.00;;;1.70;99.90;;;;;;2610994;47;20427;-74
2022/04/02 01:04:50;;;;;;;4.07;3.67;;;1.70;99.90;;;;;;2608484;54;20434;-77
2022/04/02 01:07:19;;;;;;;3.73;3.27;;;1.70;99.90;;;;;;2609525;54;20416;-76
2022/04/02 01:09:45;;;;;;;3.77;3.43;;;1.70;99.90;;;;;;2608733;31;20854;-76
2022/04/02 01:12:11;;;;;;;8.23;4.00;;;1.70;99.90;;;;;;2607427;54;20402;-76
2022/04/02 01:14:40;;;;;;;3.57;3.17;;;1.70;99.90;;;;;;2610540;39;21166;-76
2022/04/02 01:17:18;;;;;;;6.70;4.13;;;1.70;99.90;;;;;;2609289;31;20908;-75
2022/04/02 01:19:47;;;;;;;7.30;3.87;;;1.70;99.90;;;;;;2609804;54;20500;-76
2022/04/02 01:22:22;;;;;;;4.30;3.87;;;1.70;99.90;;;;;;2609718;54;20427;-76
2022/04/02 01:24:51;;;;;;;7.20;4.20;;;1.70;99.90;;;;;;2610149;54;20576;-76
2022/04/02 01:27:19;;;;;;;13.17;4.07;;;1.70;99.90;;;;;;2609124;50;20401;-75
2022/04/02 01:29:51;;;;;;;5.13;3.57;;;1.60;99.90;;;;;;2609296;47;20438;-77
2022/04/02 01:32:20;;;;;;;6.60;4.10;;;1.60;99.90;;;;;;2607825;47;20442;-75
2022/04/02 01:34:52;;;;;;;7.27;4.00;;;1.60;99.90;;;;;;2608827;54;20434;-75
2022/04/02 01:37:19;;;;;;;4.43;3.23;;;1.70;99.90;;;;;;2609583;54;20418;-75
2022/04/02 01:39:51;;;;;;;6.97;4.10;;;1.60;99.90;;;;;;2609185;48;20422;-76
2022/04/02 01:42:24;;;;;;;5.60;3.40;;;1.70;99.90;;;;;;2609316;54;20505;-75
2022/04/02 01:44:57;;;;;;;3.50;3.20;;;1.70;99.90;;;;;;2608461;54;20407;-75
2022/04/02 01:47:35;;;;;;;5.13;3.30;;;1.70;99.90;;;;;;2609240;47;20403;-74
2022/04/02 01:50:04;;;;;;;3.50;2.47;;;1.60;99.90;;;;;;2608105;47;20449;-76
2022/04/02 01:52:33;;;;;;;3.27;2.50;;;1.60;99.90;;;;;;2608308;54;20419;-75
2022/04/02 01:54:59;;;;;;;5.03;3.37;;;1.60;99.90;;;;;;2611658;54;20412;-74
2022/04/02 01:57:25;;;;;;;2.50;2.30;;;1.70;99.90;;;;;;2610928;54;20971;-75
2022/04/02 01:59:51;;;;;;;11.63;3.90;;;1.70;99.90;;;;;;2608240;47;20424;-74
2022/04/02 02:02:20;;;;;;;4.33;2.10;;;1.60;99.90;;;;;;2607878;47;21125;-75
2022/04/02 02:04:48;;;;;;;5.70;3.40;;;1.60;99.90;;;;;;2608555;54;20540;-74
2022/04/02 02:07:14;;;;;;;3.50;3.17;;;1.60;99.90;;;;;;2607465;39;21280;-75
2022/04/02 02:09:44;;;;;;;3.80;3.37;;;1.60;99.90;;;;;;2608525;47;20387;-75
2022/04/02 02:12:23;;;;;;;4.60;3.77;;;1.60;99.90;;;;;;2609846;54;21120;-74
2022/04/02 02:15:00;;;;;;;6.23;3.43;;;1.70;99.90;;;;;;2608557;47;20421;-75
2022/04/02 02:17:26;;;;;;;5.13;2.63;;;1.60;99.90;;;;;;2607870;54;20437;-75
2022/04/02 02:19:59;;;;;;;5.10;2.53;;;1.70;99.90;;;;;;2607169;54;20421;-75
2022/04/02 02:22:25;;;;;;;3.30;3.00;;;1.70;99.90;;;;;;2608327;39;22409;-74
2022/04/02 02:24:51;;;;;;;3.03;2.70;;;1.70;99.90;;;;;;2607504;47;20171;-75
2022/04/02 02:27:17;;;;;;;4.93;2.77;;;1.60;99.90;;;;;;2607886;54;20143;-74
2022/04/02 02:29:43;;;;;;;6.40;3.37;;;1.70;99.90;;;;;;2608520;39;20886;-75
2022/04/02 02:32:19;;;;;;;4.10;3.30;;;1.70;99.90;;;;;;2609696;39;20784;-74
2022/04/02 02:37:31;;;;;;;4.40;3.30;;;1.70;99.90;;;;;;2608216;54;20390;-75
2022/04/02 02:40:09;;;;;;;4.37;3.50;;;1.70;99.90;;;;;;2607938;47;20438;-74
2022/04/02 02:42:35;;;;;;;3.10;2.80;;;1.70;99.90;;;;;;2609370;39;20797;-74
2022/04/02 02:45:23;;;;;;;4.27;2.70;;;1.70;99.90;;;;;;2607872;39;20799;-76
2022/04/02 02:47:53;;;;;;;4.20;3.80;;;1.70;99.90;;;;;;2607531;47;20443;-74
2022/04/02 02:50:27;;;;;;;3.07;2.70;;;1.70;99.90;;;;;;2608946;39;20799;-75
2022/04/02 02:52:57;;;;;;;2.20;2.00;;;1.80;99.90;;;;;;2609473;54;20560;-75
2022/04/02 02:55:23;;;;;;;5.27;3.13;;;1.70;99.90;;;;;;2609719;54;20419;-75
2022/04/02 02:57:49;;;;;;;11.10;2.60;;;1.70;99.90;;;;;;2608148;47;20482;-74
2022/04/02 03:00:17;;;;;;;5.43;3.20;;;1.70;99.90;;;;;;2607915;47;20407;-73
2022/04/02 03:02:47;;;;;;;4.80;3.30;;;1.70;99.90;;;;;;2607594;47;20406;-75
2022/04/02 03:05:16;;;;;;;2.37;2.00;;;1.70;99.90;;;;;;2608739;54;20399;-75
2022/04/02 03:07:49;;;;;;;4.43;2.87;;;1.60;99.90;;;;;;2610357;47;22254;-75
2022/04/02 03:10:26;;;;;;;3.63;2.90;;;1.70;99.90;;;;;;2608538;39;20867;-75
2022/04/02 03:12:57;;;;;;;3.27;2.37;;;1.70;99.90;;;;;;2608522;54;20432;-75
2022/04/02 03:15:26;;;;;;;3.40;2.50;;;1.70;99.90;;;;;;2607683;54;20431;-74
2022/04/02 03:17:53;;;;;;;6.83;1.93;;;1.70;99.90;;;;;;2610269;46;20427;-72
2022/04/02 03:20:21;;;;;;;3.50;2.77;;;1.70;99.90;;;;;;2607754;54;20423;-75
2022/04/02 03:22:49;;;;;;;3.83;2.47;;;1.70;99.90;;;;;;2608357;54;20438;-73
2022/04/02 03:25:19;;;;;;;3.80;3.03;;;1.70;99.90;;;;;;2609322;47;20414;-75
2022/04/02 03:27:47;;;;;;;3.73;2.53;;;1.70;99.90;;;;;;2609572;47;20402;-75
2022/04/02 03:30:20;;;;;;;5.60;3.20;;;1.70;99.90;;;;;;2608643;47;20416;-74
2022/04/02 03:32:49;;;;;;;4.80;2.87;;;1.70;99.90;;;;;;2608676;54;20394;-75
2022/04/02 03:35:16;;;;;;;1.93;1.63;;;1.70;99.90;;;;;;2607692;54;20418;-73
2022/04/02 03:37:47;;;;;;;2.70;2.50;;;1.70;99.90;;;;;;2608559;47;20424;-74
2022/04/02 03:40:15;;;;;;;3.63;2.67;;;1.70;99.90;;;;;;2610270;39;21218;-74
2022/04/02 03:42:44;;;;;;;4.87;2.70;;;1.70;99.90;;;;;;2610266;54;20477;-74
2022/04/02 03:45:14;;;;;;;2.10;1.90;;;1.70;99.90;;;;;;2609532;46;20426;-73
2022/04/02 03:47:45;;;;;;;2.60;2.40;;;1.70;99.90;;;;;;2609859;54;20440;-73
2022/04/02 03:50:12;;;;;;;2.50;1.97;;;1.70;99.90;;;;;;2608141;47;20415;-75
2022/04/02 03:52:46;;;;;;;1.70;1.43;;;1.70;99.90;;;;;;2609036;47;20414;-74
2022/04/02 03:55:17;;;;;;;2.67;2.30;;;1.70;99.90;;;;;;2606917;46;20423;-75
2022/04/02 03:57:47;;;;;;;6.63;3.20;;;1.70;99.90;;;;;;2608641;47;21058;-74
2022/04/02 04:00:16;;;;;;;3.00;2.77;;;1.70;99.90;;;;;;2609297;47;20514;-75
2022/04/02 04:02:51;;;;;;;2.50;2.00;;;1.70;99.90;;;;;;2613508;54;20398;-74
2022/04/02 04:05:25;;;;;;;3.70;2.40;;;1.70;99.90;;;;;;2610294;47;20486;-74
2022/04/02 04:07:52;;;;;;;3.57;2.53;;;1.70;99.90;;;;;;2609562;54;20466;-74
2022/04/02 04:10:19;;;;;;;4.93;3.13;;;1.70;99.90;;;;;;2608731;54;20406;-75
2022/04/02 04:12:48;;;;;;;5.50;3.13;;;1.70;99.90;;;;;;2609756;54;20416;-74
2022/04/02 04:15:17;;;;;;;1.93;1.83;;;1.70;99.90;;;;;;2608024;54;20484;-74
2022/04/02 04:17:44;;;;;;;4.73;2.97;;;1.70;99.90;;;;;;2608036;54;20534;-72
2022/04/02 04:20:11;;;;;;;2.60;2.40;;;1.70;99.90;;;;;;2609096;46;20426;-74
2022/04/02 04:22:39;;;;;;;2.50;1.97;;;1.70;99.90;;;;;;2609632;47;20555;-74
2022/04/02 04:25:10;;;;;;;3.23;2.17;;;1.70;99.90;;;;;;2608344;47;20451;-73
2022/04/02 04:27:38;;;;;;;4.23;2.40;;;1.80;99.90;;;;;;2607569;47;20510;-73
2022/04/02 04:30:06;;;;;;;4.37;2.50;;;1.80;99.90;;;;;;2608863;54;20523;-75
2022/04/02 04:32:33;;;;;;;5.80;2.13;;;1.80;99.90;;;;;;2609305;54;20458;-75
2022/04/02 04:34:59;;;;;;;3.43;2.10;;;1.70;99.90;;;;;;2609314;54;21515;-74
2022/04/02 04:37:27;;;;;;;3.20;2.10;;;1.70;99.90;;;;;;2610439;54;20411;-74
2022/04/02 04:39:54;;;;;;;5.23;1.87;;;1.70;99.90;;;;;;2609550;54;20414;-76
2022/04/02 04:42:21;;;;;;;9.70;2.90;;;1.70;99.90;;;;;;2608350;54;20455;-74
2022/04/02 04:44:49;;;;;;;2.90;2.60;;;1.70;99.90;;;;;;2608484;54;20423;-75
2022/04/02 04:47:19;;;;;;;1.37;1.27;;;1.70;99.90;;;;;;2608494;47;20967;-74
2022/04/02 04:49:48;;;;;;;5.00;3.37;;;1.70;99.90;;;;;;2609175;39;20806;-75
2022/04/02 04:52:14;;;;;;;3.10;2.40;;;1.60;99.90;;;;;;2608238;47;20543;-75
2022/04/02 04:54:41;;;;;;;3.00;1.77;;;1.70;99.90;;;;;;2608924;39;20839;-75
2022/04/02 04:57:13;;;;;;;3.20;2.50;;;1.70;99.90;;;;;;2610109;46;20431;-74
2022/04/02 04:59:44;;;;;;;2.70;1.73;;;1.70;99.90;;;;;;2608427;39;20973;-74
2022/04/02 05:02:13;;;;;;;4.33;3.50;;;1.60;99.90;;;;;;2608193;54;20415;-75
2022/04/02 05:04:40;;;;;;;5.43;3.50;;;1.70;99.90;;;;;;2607320;47;21002;-76
2022/04/02 05:07:06;;;;;;;7.00;3.27;;;1.70;99.90;;;;;;2607570;47;20399;-74
2022/04/02 05:09:33;;;;;;;5.80;2.53;;;1.70;99.90;;;;;;2607555;47;20414;-75
2022/04/02 05:12:04;;;;;;;2.20;2.00;;;1.70;99.90;;;;;;2608847;54;20383;-76
2022/04/02 05:14:30;;;;;;;3.10;2.77;;;1.60;99.90;;;;;;2609998;47;20647;-73
2022/04/02 05:16:59;;;;;;;4.33;2.57;;;1.70;99.90;;;;;;2608187;54;20448;-75
2022/04/02 05:19:29;;;;;;;2.63;2.13;;;1.70;99.90;;;;;;2608632;47;20442;-76
2022/04/02 05:21:57;;;;;;;3.60;2.83;;;1.70;99.90;;;;;;2608336;54;20403;-74
2022/04/02 05:24:24;;;;;;;3.00;2.73;;;1.70;99.90;;;;;;2607937;54;20398;-75
2022/04/02 05:26:53;;;;;;;3.47;2.57;;;1.70;99.90;;;;;;2608873;54;20422;-76
2022/04/02 05:29:20;;;;;;;5.23;3.40;;;1.70;99.90;;;;;;2610443;54;20427;-76
2022/04/02 05:31:47;;;;;;;3.40;2.70;;;1.70;99.90;;;;;;2610942;54;21055;-75
2022/04/02 05:34:13;;;;;;;2.70;2.50;;;1.70;99.90;;;;;;2612034;54;20450;-74
2022/04/02 05:36:41;;;;;;;3.33;2.97;;;1.70;99.90;;;;;;2611449;54;20419;-75
2022/04/02 05:39:07;;;;;;;4.00;3.10;;;1.70;99.90;;;;;;2611137;54;20461;-74
2022/04/02 05:41:33;;;;;;;4.93;3.27;;;1.70;99.90;;;;;;2611885;54;20431;-75
2022/04/02 05:43:59;;;;;;;2.90;2.23;;;1.80;99.90;;;;;;2612132;54;20178;-75
2022/04/02 05:46:25;;;;;;;5.13;2.90;;;1.80;99.90;;;;;;2610655;46;20554;-75
2022/04/02 05:48:51;;;;;;;1.70;1.60;;;1.80;99.90;;;;;;2612913;54;20177;-74
2022/04/02 05:51:18;;;;;;;5.30;3.23;;;1.90;99.90;;;;;;2611967;39;21104;-74
2022/04/02 05:53:44;;;;;;;2.60;2.40;;;1.80;99.90;;;;;;2611951;51;20175;-73
2022/04/02 05:56:11;;;;;;;3.70;3.07;;;1.80;99.90;;;;;;2609443;47;20991;-75
2022/04/02 05:58:37;;;;;;;6.53;3.47;;;1.80;99.90;;;;;;2609633;54;20449;-75
2022/04/02 06:01:03;;;;;;;10.93;3.37;;;1.90;99.90;;;;;;2613421;54;20414;-75
2022/04/02 06:03:30;;;;;;;3.30;3.00;;;1.90;99.90;;;;;;2609843;54;20450;-75
2022/04/02 06:05:56;;;;;;;3.70;3.40;;;1.90;99.90;;;;;;2611350;54;20431;-74
2022/04/02 06:08:22;;;;;;;4.93;3.47;;;1.90;99.90;;;;;;2611765;39;20856;-73
2022/04/02 06:10:48;;;;;;;3.60;2.67;;;1.90;99.90;;;;;;2610104;54;21394;-75
2022/04/02 06:13:14;;;;;;;3.40;3.00;;;2.00;99.90;;;;;;2608135;54;20395;-75
2022/04/02 06:15:40;;;;;;;3.50;3.00;;;2.00;99.90;;;;;;2610214;54;20498;-75
2022/04/02 06:18:07;;;;;;;3.70;2.30;;;2.00;99.90;;;;;;2608932;54;20961;-77
2022/04/02 06:20:33;;;;;;;4.37;3.17;;;2.00;99.90;;;;;;2610889;54;20159;-75
2022/04/02 06:22:59;;;;;;;3.90;2.83;;;2.10;99.90;;;;;;2610902;47;20427;-75
2022/04/02 06:25:25;;;;;;;3.60;2.90;;;2.00;99.90;;;;;;2612055;54;20509;-75
2022/04/02 06:27:52;;;;;;;4.10;3.00;;;2.00;99.90;;;;;;2611104;54;20514;-77
2022/04/02 06:30:20;;;;;;;4.90;3.90;;;2.10;99.90;;;;;;2610774;54;20403;-78
2022/04/02 06:32:46;;;;;;;3.13;2.80;;;2.10;99.90;;;;;;2609359;54;20401;-75
2022/04/02 06:35:14;;;;;;;3.57;3.27;;;2.10;99.90;;;;;;2607808;54;20534;-74
2022/04/02 06:37:41;;;;;;;3.87;3.27;;;2.10;99.90;;;;;;2608482;54;20431;-75
2022/04/02 06:40:11;;;;;;;3.33;3.03;;;2.30;99.90;;;;;;2609500;39;20750;-74
2022/04/02 06:42:38;;;;;;;3.90;3.03;;;2.20;99.90;;;;;;2611259;46;20430;-75
2022/04/02 06:45:09;;;;;;;4.03;3.37;;;2.30;99.90;;;;;;2610928;54;20505;-76
2022/04/02 06:47:35;;;;;;;7.17;3.40;;;2.30;99.90;;;;;;2610498;54;21160;-75
2022/04/02 06:50:13;;;;;;;3.70;3.30;;;2.20;99.90;;;;;;2610988;54;20435;-74
2022/04/02 06:52:40;;;;;;;4.90;4.33;;;2.30;99.90;;;;;;2610496;54;20398;-76
2022/04/02 06:55:08;;;;;;;9.37;3.60;;;2.40;99.90;;;;;;2609884;54;20441;-74
2022/04/02 06:57:43;;;;;;;3.23;3.03;;;2.40;99.90;;;;;;2611129;54;20426;-75
2022/04/02 07:00:14;;;;;;;3.50;3.10;;;2.40;99.90;;;;;;2611742;54;20426;-74
2022/04/02 07:02:41;;;;;;;2.23;2.07;;;2.40;99.90;;;;;;2610771;54;20986;-77
2022/04/02 07:05:09;;;;;;;2.47;2.27;;;2.50;99.90;;;;;;2610248;54;20415;-75
2022/04/02 07:07:36;;;;;;;3.97;3.10;;;2.50;99.90;;;;;;2611365;54;20408;-73
2022/04/02 07:10:04;;;;;;;3.17;2.87;;;2.50;99.90;;;;;;2607898;47;20982;-75
2022/04/02 07:12:31;;;;;;;5.80;2.60;;;2.60;99.90;;;;;;2608946;54;21887;-73
2022/04/02 07:14:57;;;;;;;5.43;3.30;;;2.70;99.90;;;;;;2608644;49;20629;-74
2022/04/02 07:17:23;;;;;;;5.37;4.73;;;2.70;99.90;;;;;;2610693;54;20970;-74
2022/04/02 07:19:52;;;;;;;8.13;4.00;;;2.80;99.90;;;;;;2629740;36;20494;-74
2022/04/02 07:22:20;;;;;;;3.93;3.53;;;2.80;99.90;;;;;;2611203;54;21223;-74
2022/04/02 07:24:47;;;;;;;4.93;3.30;;;2.80;99.90;;;;;;2610955;54;20423;-74
2022/04/02 07:27:13;;;;;;;5.00;4.33;;;2.80;99.90;;;;;;2610504;54;20416;-75
2022/04/02 07:29:40;;;;;;;5.30;4.60;;;2.80;99.90;;;;;;2609722;47;20410;-73
2022/04/02 07:32:10;;;;;;;4.60;3.90;;;2.90;99.90;;;;;;2608191;54;21127;-73
2022/04/02 07:34:36;;;;;;;3.97;2.63;;;2.90;99.90;;;;;;2608963;54;20418;-74
2022/04/02 07:37:40;;;;;;;4.33;3.07;;;2.90;99.90;;;;;;2610835;39;20852;-73
2022/04/02 07:40:18;;;;;;;4.03;2.10;;;3.00;99.90;;;;;;2611287;54;20423;-74
2022/04/02 07:43:02;;;;;;;6.20;2.97;;;3.00;99.90;;;;;;2611965;54;21045;-74
2022/04/02 07:45:37;;;;;;;6.50;4.03;;;2.90;99.90;;;;;;2613280;39;20421;-74
2022/04/02 07:48:07;;;;;;;4.87;4.10;;;3.00;99.90;;;;;;2612141;54;20530;-75
2022/04/02 07:50:33;;;;;;;2.90;2.63;;;3.10;99.90;;;;;;2611915;54;20974;-74
2022/04/02 07:53:02;;;;;;;4.50;3.13;;;3.10;99.90;;;;;;2610026;47;20432;-74
2022/04/02 07:55:31;;;;;;;3.40;2.73;;;3.10;99.90;;;;;;2610414;47;20458;-75
2022/04/02 07:58:02;;;;;;;3.83;3.10;;;3.10;99.90;;;;;;2612215;54;20414;-74
2022/04/02 08:00:28;;;;;;;3.70;3.23;;;3.20;99.90;;;;;;2609950;47;20411;-74
2022/04/02 08:02:56;;;;;;;3.20;2.70;;;3.30;99.90;;;;;;2609745;51;20386;-76
2022/04/02 08:05:24;;;;;;;1.90;1.80;;;3.30;99.90;;;;;;2609806;47;20422;-76
2022/04/02 08:07:55;;;;;;;3.87;3.50;;;3.40;99.90;;;;;;2610003;47;20406;-77
2022/04/02 08:10:28;;;;;;;2.77;2.53;;;3.50;99.90;;;;;;2607553;54;20406;-77
2022/04/02 08:12:57;;;;;;;4.00;3.17;;;3.50;99.90;;;;;;2611979;54;20399;-75
2022/04/02 08:15:24;;;;;;;4.30;3.20;;;3.50;99.90;;;;;;2610032;54;20438;-75
2022/04/02 08:17:55;;;;;;;2.67;2.30;;;3.40;99.90;;;;;;2611248;54;20441;-76
2022/04/02 08:20:22;;;;;;;3.67;3.37;;;3.40;98.80;;;;;;2610010;54;20445;-76
2022/04/02 08:22:48;;;;;;;6.90;4.33;;;3.50;97.80;;;;;;2609521;54;20558;-76
2022/04/02 08:25:16;;;;;;;5.50;3.83;;;3.70;98.70;;;;;;2607610;47;20427;-77
2022/04/02 08:27:53;;;;;;;8.47;4.10;;;3.80;97.60;;;;;;2608041;54;20419;-77
2022/04/02 08:30:28;;;;;;;3.50;3.00;;;3.90;94.90;;;;;;2609862;54;20446;-78
2022/04/02 08:33:15;;;;;;;4.63;3.90;;;3.80;92.50;;;;;;2612800;54;20518;-79
2022/04/02 08:36:04;;;;;;;3.73;3.30;;;3.80;93.80;;;;;;2608020;54;20471;-78
2022/04/02 08:39:03;;;;;;;2.93;2.73;;;3.70;91.40;;;;;;2608662;54;20428;-77
2022/04/02 08:41:54;;;;;;;2.80;2.27;;;3.70;93.90;;;;;;2608666;47;20426;-78
2022/04/02 08:44:41;;;;;;;12.30;4.17;;;3.70;93.50;;;;;;2608888;54;20403;-77
2022/04/02 08:47:22;;;;;;;4.90;4.50;;;3.70;93.70;;;;;;2609785;47;20433;-76
2022/04/02 08:50:05;;;;;;;5.93;3.83;;;4.00;96.40;;;;;;2611686;54;20417;-76
2022/04/02 08:52:55;;;;;;;5.20;3.43;;;4.20;88.30;;;;;;2611018;51;20458;-76
2022/04/02 08:55:27;;;;;;;9.60;5.10;;;4.10;88.50;;;;;;2610166;54;20430;-76
2022/04/02 08:57:53;;;;;;;7.43;5.60;;;4.10;89.40;;;;;;2609478;54;20412;-75
2022/04/02 09:00:24;;;;;;;3.90;3.50;;;4.20;90.50;;;;;;2606805;54;20438;-75
2022/04/02 09:03:09;;;;;;;4.20;3.87;;;4.30;89.80;;;;;;2608761;54;20178;-75
2022/04/02 09:06:20;;;;;;;3.30;2.60;;;4.40;82.90;;;;;;2608249;54;21091;-76
2022/04/02 09:09:06;;;;;;;4.53;3.77;;;4.30;76.70;;;;;;2609667;47;20427;-76
2022/04/02 09:11:35;;;;;;;5.27;3.67;;;4.30;80.70;;;;;;2610139;54;20418;-75
2022/04/02 09:14:04;;;;;;;3.70;2.60;;;4.40;78.30;;;;;;2609009;54;20611;-75
2022/04/02 09:17:01;;;;;;;6.40;3.93;;;4.40;72.90;;;;;;2608872;39;21077;-76
2022/04/02 09:19:37;;;;;;;5.33;3.60;;;4.50;76.00;;;;;;2611215;31;20945;-76
2022/04/02 09:22:15;;;;;;;4.40;3.70;;;4.60;73.40;;;;;;2609423;47;20406;-75
2022/04/02 09:25:10;;;;;;;4.07;3.10;;;4.70;70.70;;;;;;2611711;54;20939;-75
2022/04/02 09:28:10;;;;;;;3.57;3.27;;;4.90;61.70;;;;;;2608899;47;20486;-75
2022/04/02 09:31:05;;;;;;;3.70;3.40;;;4.90;63.20;;;;;;2609443;47;20454;-76
2022/04/02 09:33:48;;;;;;;3.40;2.97;;;5.30;62.50;;;;;;2608451;39;20883;-75
2022/04/02 09:36:28;;;;;;;4.53;3.70;;;5.50;57.70;;;;;;2611239;54;20412;-75
2022/04/02 09:39:13;;;;;;;4.20;3.50;;;5.50;59.70;;;;;;2610008;54;20415;-75
2022/04/02 09:41:58;;;;;;;6.17;4.77;;;5.40;55.40;;;;;;2610057;54;20426;-75
2022/04/02 09:44:46;;;;;;;4.33;3.93;;;5.30;56.90;;;;;;2611022;54;20437;-76
2022/04/02 09:47:22;;;;;;;4.03;3.43;;;5.50;53.90;;;;;;2608911;54;20435;-74
2022/04/02 09:50:12;;;;;;;6.20;3.53;;;5.50;50.20;;;;;;2609311;39;20778;-75
2022/04/02 09:53:11;;;;;;;4.23;3.80;;;5.70;50.70;;;;;;2607120;54;20427;-73
2022/04/02 09:55:44;;;;;;;6.03;4.20;;;6.20;49.30;;;;;;2607342;54;20438;-76
2022/04/02 09:58:41;;;;;;;4.60;3.80;;;6.60;51.10;;;;;;2607429;54;20523;-75
2022/04/02 10:01:17;;;;;;;5.50;4.50;;;6.70;46.90;;;;;;2610751;54;20400;-76
2022/04/02 10:03:49;;;;;;;5.90;4.50;;;6.70;43.20;;;;;;2608407;54;20999;-75
2022/04/02 10:06:20;;;;;;;4.30;3.90;;;6.90;42.40;;;;;;2669960;36;20869;-73
2022/04/02 10:09:05;;;;;;;4.07;3.60;;;6.70;41.10;;;;;;2607755;54;20519;-74
2022/04/02 10:11:32;;;;;;;5.00;3.93;;;6.60;43.20;;;;;;2609550;46;20444;-74
2022/04/02 10:14:00;;;;;;;3.53;3.23;;;6.40;40.80;;;;;;2607952;54;20962;-74
2022/04/02 10:16:27;;;;;;;5.93;3.73;;;6.10;41.30;;;;;;2608087;54;20494;-76
2022/04/02 10:18:57;;;;;;;6.17;4.63;;;5.90;41.70;;;;;;2609059;54;20402;-74
2022/04/02 10:21:23;;;;;;;3.60;3.30;;;6.10;41.10;;;;;;2610074;54;20444;-75
2022/04/02 10:24:21;;;;;;;3.97;3.37;;;6.20;40.40;;;;;;2605769;47;20408;-73
2022/04/02 10:26:57;;;;;;;5.20;3.30;;;6.00;42.40;;;;;;2608188;47;21944;-74
2022/04/02 10:29:41;;;;;;;6.50;4.07;;;5.60;50.00;;;;;;2608240;54;20427;-73
2022/04/02 10:32:25;;;;;;;4.40;3.80;;;5.20;53.90;;;;;;2609182;39;20773;-74
2022/04/02 10:35:08;;;;;;;9.10;4.23;;;5.20;55.40;;;;;;2609151;47;20451;-75
2022/04/02 10:37:51;;;;;;;7.23;3.80;;;5.20;58.60;;;;;;2611883;54;21082;-75
2022/04/02 10:40:24;;;;;;;5.83;4.50;;;5.50;56.00;;;;;;2607929;54;20486;-73
2022/04/02 10:43:02;;;;;;;4.60;4.20;;;5.60;53.40;;;;;;2606513;47;21072;-74
2022/04/02 10:45:29;;;;;;;5.07;3.97;;;5.60;54.50;;;;;;2607406;39;20947;-75
2022/04/02 10:48:06;;;;;;;6.10;4.60;;;5.80;52.10;;;;;;2606801;47;20473;-75
2022/04/02 10:50:33;;;;;;;7.37;4.40;;;6.00;52.60;;;;;;2607468;54;20519;-74
2022/04/02 10:53:03;;;;;;;4.87;4.47;;;6.20;50.30;;;;;;2608559;39;20892;-75
2022/04/02 10:55:29;;;;;;;4.77;4.03;;;6.30;50.20;;;;;;2608629;39;20787;-74
2022/04/02 10:57:59;;;;;;;4.23;3.90;;;6.20;45.20;;;;;;2608247;54;20434;-74
2022/04/02 11:00:30;;;;;;;8.10;4.70;;;5.80;51.90;;;;;;2607588;54;20446;-74
2022/04/02 11:03:04;;;;;;;3.90;3.60;;;5.60;56.40;;;;;;2608500;54;20499;-74
2022/04/02 11:05:37;;;;;;;8.27;5.27;;;5.50;62.70;;;;;;2604899;54;20430;-75
2022/04/02 11:08:05;;;;;;;6.17;5.57;;;5.30;79.00;;;;;;2608068;54;20482;-74
2022/04/02 11:10:35;;;;;;;9.03;6.40;;;5.20;90.00;;;;;;2608032;54;20939;-75
2022/04/02 11:13:04;;;;;;;6.60;5.50;;;5.10;94.50;;;;;;2611746;54;20966;-73
2022/04/02 11:15:38;;;;;;;5.87;5.17;;;5.10;96.70;;;;;;2610614;54;20398;-75
2022/04/02 11:18:04;;;;;;;9.13;5.37;;;5.20;99.60;;;;;;2607432;54;21023;-75
2022/04/02 11:20:32;;;;;;;6.87;4.77;;;5.10;96.60;;;;;;2606912;54;20407;-76
2022/04/02 11:23:12;;;;;;;6.47;5.80;;;4.90;98.60;;;;;;2606611;54;20416;-76
2022/04/02 11:25:42;;;;;;;11.40;6.00;;;4.70;96.00;;;;;;2606185;39;20868;-74
2022/04/02 11:28:20;;;;;;;5.20;4.70;;;4.50;97.10;;;;;;2608472;54;20396;-75
2022/04/02 11:31:06;;;;;;;4.77;4.20;;;4.50;96.40;;;;;;2607099;54;20402;-75
2022/04/02 11:33:33;;;;;;;7.63;6.73;;;4.40;95.20;;;;;;2607261;54;20433;-73
2022/04/02 11:36:05;;;;;;;5.50;4.97;;;4.60;95.10;;;;;;2609770;39;20769;-75
2022/04/02 11:38:31;;;;;;;6.10;5.10;;;4.80;94.50;;;;;;2609350;54;20422;-74
2022/04/02 11:41:23;;;;;;;6.53;5.03;;;4.90;92.70;;;;;;2609271;54;20394;-75
2022/04/02 11:43:51;;;;;;;7.63;4.00;;;5.10;92.00;;;;;;2611879;39;20578;-76
2022/04/02 11:46:19;;;;;;;4.87;4.43;;;5.00;87.90;;;;;;2608832;54;21118;-74
2022/04/02 11:48:59;;;;;;;5.97;5.37;;;4.90;88.40;;;;;;2608580;54;20533;-75
2022/04/02 11:51:30;;;;;;;5.40;4.90;;;5.00;88.40;;;;;;2610143;54;20409;-77
2022/04/02 11:54:07;;;;;;;5.10;4.60;;;5.00;85.40;;;;;;2610595;54;20518;-75
2022/04/02 11:56:44;;;;;;;5.13;4.50;;;5.10;84.30;;;;;;2605233;47;20446;-74
2022/04/02 11:59:14;;;;;;;5.30;4.43;;;5.10;80.40;;;;;;2606771;54;20410;-76
2022/04/02 12:01:44;;;;;;;9.70;5.00;;;5.00;69.00;;;;;;2607700;54;20502;-75
2022/04/02 12:04:15;;;;;;;4.67;4.23;;;5.10;72.40;;;;;;2607369;54;20416;-74
2022/04/02 12:06:44;;;;;;;7.63;4.57;;;5.30;73.30;;;;;;2608755;54;20493;-75
2022/04/02 12:09:20;;;;;;;6.40;5.57;;;5.30;70.00;;;;;;2611372;51;20427;-74
2022/04/02 12:11:56;;;;;;;6.17;5.30;;;5.40;71.10;;;;;;2607451;47;20471;-74
2022/04/02 12:14:29;;;;;;;6.47;4.90;;;5.30;68.80;;;;;;2609353;54;20456;-74
2022/04/02 12:16:59;;;;;;;7.00;5.40;;;5.40;69.40;;;;;;2610271;54;20511;-74
2022/04/02 12:19:44;;;;;;;6.23;5.63;;;5.40;66.70;;;;;;2609939;47;20523;-75
2022/04/02 12:22:26;;;;;;;6.90;5.93;;;5.30;67.90;;;;;;2609800;54;20410;-76
2022/04/02 12:24:55;;;;;;;4.00;3.70;;;5.30;69.30;;;;;;2609479;47;20407;-74
2022/04/02 12:27:32;;;;;;;7.20;5.37;;;5.20;66.90;;;;;;2609504;47;20399;-74
2022/04/02 12:30:00;;;;;;;6.00;4.90;;;5.30;68.70;;;;;;2608242;54;20482;-75
2022/04/02 12:32:41;;;;;;;7.60;6.57;;;5.30;63.80;;;;;;2606855;54;20410;-75
2022/04/02 12:35:12;;;;;;;7.70;5.50;;;5.10;67.30;;;;;;2604000;47;20420;-74
2022/04/02 12:37:44;;;;;;;6.33;5.47;;;5.10;65.20;;;;;;2608259;39;20844;-75
2022/04/02 12:40:19;;;;;;;6.07;5.47;;;4.90;67.10;;;;;;2607899;54;20387;-76
2022/04/02 12:42:47;;;;;;;5.70;5.20;;;5.00;64.90;;;;;;2608955;54;20419;-75
2022/04/02 12:45:19;;;;;;;8.53;6.87;;;5.10;68.40;;;;;;2610875;54;20410;-73
2022/04/02 12:47:59;;;;;;;6.80;6.10;;;5.30;69.80;;;;;;2610616;39;20917;-74
2022/04/02 12:50:25;;;;;;;7.57;6.93;;;5.60;64.60;;;;;;2611364;54;20409;-76
2022/04/02 12:52:51;;;;;;;6.67;6.07;;;5.90;61.50;;;;;;2604452;46;20428;-75
2022/04/02 12:55:24;;;;;;;4.93;4.50;;;6.00;57.10;;;;;;2610650;54;20233;-73
2022/04/02 12:58:07;;;;;;;7.03;5.37;;;6.20;49.70;;;;;;2612779;31;20837;-76
2022/04/02 13:00:39;;;;;;;5.80;4.90;;;6.30;43.10;;;;;;2610485;54;20979;-74
2022/04/02 13:03:06;;;;;;;6.90;5.80;;;6.40;42.10;;;;;;2605992;54;20558;-75
2022/04/02 13:05:45;;;;;;;5.97;5.57;;;6.60;42.20;;;;;;2608545;38;20980;-75
2022/04/02 13:08:32;;;;;;;6.17;5.53;;;6.90;40.70;;;;;;2607585;46;20432;-74
2022/04/02 13:11:01;;;;;;;7.20;6.33;;;7.60;38.30;;;;;;2610861;46;20506;-73
2022/04/02 13:13:34;;;;;;;4.87;4.50;;;8.00;30.70;;;;;;2611755;54;20537;-73
2022/04/02 13:16:01;;;;;;;5.90;5.30;;;8.50;27.60;;;;;;2610371;54;20423;-73
2022/04/02 13:21:19;;;;;;;5.87;4.93;;;8.60;22.30;;;;;;2611613;54;20470;-74
2022/04/02 13:24:12;;;;;;;6.83;6.30;;;8.80;20.50;;;;;;2608730;47;21012;-75
2022/04/02 13:27:01;;;;;;;5.70;5.20;;;9.00;18.60;;;;;;2612169;54;20934;-73
2022/04/02 13:30:05;;;;;;;7.57;5.17;;;9.40;14.60;;;;;;2612949;46;20440;-74